METAR AND TAF INFORMATION
METAR FOR URKA
ADDS - METARS form results

(1727 UTC 29 September 2020)
Data provider http://aviationweather.gov/metar/data/
 
METAR text: URKA 291700Z 13002MPS 9999 BKN/// 20/16 Q1010 R04/010065 NOSIG RMK QFE754/1005
Conditions at: URKA (ANAPA/VITIAZEVO , RU) observed 1700 UTC 29 September 2020
Temperature: 20.0°C (68°F)
Dewpoint: 16.0°C (61°F) [RH = 78%]
Pressure (altimeter): 29.82 inches Hg (1010.0 mb)
Winds: from the SE (130 degrees) at 5 MPH (4 knots; 2.1 m/s)
Visibility: 6 or more miles (10+ km)
Ceiling: unknown
Clouds: missing
Weather: no significant weather observed at this time

METAR text: URKA 291630Z 11003MPS 9999 BKN/// 21/16 Q1011 R04/010065 NOSIG RMK QFE754/1006
Conditions at: URKA (ANAPA/VITIAZEVO , RU) observed 1630 UTC 29 September 2020
Temperature: 21.0°C (70°F)
Dewpoint: 16.0°C (61°F) [RH = 73%]
Pressure (altimeter): 29.85 inches Hg (1011.0 mb)
Winds: from the ESE (110 degrees) at 7 MPH (6 knots; 3.1 m/s)
Visibility: 6 or more miles (10+ km)
Ceiling: unknown
Clouds: missing
Weather: no significant weather observed at this time

Forecast for: URKA (ANAPA/VITIAZEVO , RU)
Text: TAF URKA 291655Z 2918/3018 13005G11MPS 9999 SCT020CB
Forecast period: 1800 UTC 29 September 2020 to 1800 UTC 30 September 2020
Forecast type: FROM: standard forecast or significant change
Winds: from the SE (130 degrees) at 12 MPH (10 knots; 5.1 m/s)
gusting to 24 MPH (21 knots; 10.8 m/s)
Visibility: 6 or more miles (10+ km)
Ceiling: at least 12,000 feet AGL
Clouds: scattered clouds at 2000 feet AGL
Weather: no significant weather forecast for this period
Text: TEMPO 2921/3018 VRB09G15MPS 3100 -TSRA SCT011 BKN020CB
Forecast period: 2100 UTC 29 September 2020 to 1800 UTC 30 September 2020
Forecast type: TEMPORARY: The following changes expected for less than half the time period
Winds: variable direction winds at 20 MPH (17 knots; 8.7 m/s)
gusting to 33 MPH (29 knots; 14.9 m/s)
Visibility: 1.93 miles (3.11 km)
Ceiling: 2000 feet AGL
Clouds: scattered clouds at 1100 feet AGL
broken clouds at 2000 feet AGL
Weather: -TSRA  (light rain associated with thunderstorm(s))

 AIRPORT MAP

 RUNWAY INFORMATION
Runway 04 Runway length 8202 ft Runway width 138 ft
Runway elevation 137 ft Runway displaced threshold 0 ft Runway heading 42
Runway 22 Runway length 8202 ft Runway width 138 ft
Runway elevation 174 ft Runway displaced threshold 0 ft Runway heading 222

 AIRPORT FREQUENCIES
Type APP Name ANAPA APP Frequency 118.7 MHZ
Type TWR Name ANAPA KRUG Frequency 119.8 MHZ

 AIRPORT NEAR NAVIGATION AIDS
Type NDB Name Anapa Frequency 443 KHZ
Type NDB Name Anapa Frequency 443 KHZ



Powered by Virtual Airlines Manager [v2.6.2]